createdAt,value
2023-03-15T00:02:23.627Z,6.62
2023-03-15T00:04:54.958Z,6.60
2023-03-15T00:07:26.060Z,6.59
2023-03-15T00:09:54.033Z,6.58
2023-03-15T00:12:24.748Z,6.57
2023-03-15T00:14:52.807Z,6.56
2023-03-15T00:17:23.039Z,6.56
2023-03-15T00:19:50.938Z,6.53
2023-03-15T00:22:18.842Z,6.50
2023-03-15T00:24:46.742Z,6.49
2023-03-15T00:27:14.544Z,6.49
2023-03-15T00:29:42.399Z,6.48
2023-03-15T00:32:10.564Z,6.48
2023-03-15T00:34:39.625Z,6.47
2023-03-15T00:37:07.581Z,6.47
2023-03-15T00:39:37.978Z,6.46
2023-03-15T00:42:06.206Z,6.45
2023-03-15T00:44:34.063Z,6.43
2023-03-15T00:47:01.882Z,6.42
2023-03-15T00:49:29.753Z,6.38
2023-03-15T00:51:57.670Z,6.33
2023-03-15T00:54:25.600Z,6.28
2023-03-15T00:56:53.511Z,6.23
2023-03-15T00:59:22.317Z,6.19
2023-03-15T01:01:51.449Z,6.17
2023-03-15T01:04:19.417Z,6.12
2023-03-15T01:06:47.450Z,6.07
2023-03-15T01:09:15.355Z,6.04
2023-03-15T01:11:43.243Z,6.01
2023-03-15T01:14:11.242Z,5.96
2023-03-15T01:16:39.082Z,5.92
2023-03-15T01:19:07.021Z,5.88
2023-03-15T01:21:34.985Z,5.81
2023-03-15T01:24:03.035Z,5.74
2023-03-15T01:26:30.976Z,5.67
2023-03-15T01:28:58.972Z,5.59
2023-03-15T01:31:30.335Z,5.49
2023-03-15T01:33:59.307Z,5.42
2023-03-15T01:36:27.349Z,5.38
2023-03-15T01:38:55.358Z,5.34
2023-03-15T01:41:25.906Z,5.29
2023-03-15T01:43:54.500Z,5.25
2023-03-15T01:46:34.879Z,5.22
2023-03-15T01:49:12.549Z,5.17
2023-03-15T01:52:01.633Z,5.14
2023-03-15T01:54:42.042Z,5.11
2023-03-15T01:57:12.993Z,5.06
2023-03-15T01:59:45.672Z,5.00
2023-03-15T02:02:16.734Z,4.94
2023-03-15T02:04:58.960Z,4.90
2023-03-15T02:07:34.615Z,4.86
2023-03-15T02:10:10.452Z,4.82
2023-03-15T02:12:46.810Z,4.78
2023-03-15T02:15:14.866Z,4.74
2023-03-15T02:17:45.832Z,4.71
2023-03-15T02:20:49.146Z,4.68
2023-03-15T02:23:22.293Z,4.67
2023-03-15T02:25:56.329Z,4.64
2023-03-15T02:28:24.260Z,4.62
2023-03-15T02:30:52.288Z,4.58
2023-03-15T02:33:27.713Z,4.56
2023-03-15T02:35:56.985Z,4.53
2023-03-15T02:38:24.860Z,4.51
2023-03-15T02:40:53.479Z,4.50
2023-03-15T02:43:28.248Z,4.50
2023-03-15T02:45:56.465Z,4.48
2023-03-15T02:48:24.512Z,4.46
2023-03-15T02:50:52.490Z,4.44
2023-03-15T02:53:20.344Z,4.43
2023-03-15T02:55:48.499Z,4.41
2023-03-15T02:58:16.422Z,4.40
2023-03-15T03:00:44.373Z,4.38
2023-03-15T03:03:12.262Z,4.35
2023-03-15T03:05:40.154Z,4.31
2023-03-15T03:08:07.993Z,4.29
2023-03-15T03:10:35.895Z,4.24
2023-03-15T03:13:04.030Z,4.19
2023-03-15T03:15:31.938Z,4.15
2023-03-15T03:17:59.804Z,4.11
2023-03-15T03:20:27.618Z,4.10
2023-03-15T03:22:56.093Z,4.07
2023-03-15T03:25:27.332Z,4.05
2023-03-15T03:27:57.505Z,4.02
2023-03-15T03:30:25.539Z,3.99
2023-03-15T03:32:53.427Z,3.98
2023-03-15T03:35:21.243Z,3.96
2023-03-15T03:37:49.300Z,3.94
2023-03-15T03:40:17.390Z,3.93
2023-03-15T03:42:45.281Z,3.91
2023-03-15T03:45:13.176Z,3.88
2023-03-15T03:47:41.437Z,3.87
2023-03-15T03:50:11.266Z,3.85
2023-03-15T03:52:39.155Z,3.82
2023-03-15T03:55:07.253Z,3.79
2023-03-15T03:57:35.114Z,3.77
2023-03-15T04:00:03.182Z,3.74
2023-03-15T04:02:31.188Z,3.71
2023-03-15T04:04:59.861Z,3.70
2023-03-15T04:07:28.230Z,3.68
2023-03-15T04:09:56.158Z,3.67
2023-03-15T04:12:24.159Z,3.66
2023-03-15T04:14:52.106Z,3.65
2023-03-15T04:17:20.221Z,3.64
2023-03-15T04:19:48.081Z,3.65
2023-03-15T04:22:16.124Z,3.64
2023-03-15T04:24:44.328Z,3.64
2023-03-15T04:27:14.939Z,3.62
2023-03-15T04:29:43.883Z,3.59
2023-03-15T04:32:12.082Z,3.55
2023-03-15T04:34:41.460Z,3.51
2023-03-15T04:37:09.704Z,3.49
2023-03-15T04:39:39.176Z,3.48
2023-03-15T04:42:07.405Z,3.45
2023-03-15T04:44:35.360Z,3.43
2023-03-15T04:47:03.367Z,3.40
2023-03-15T04:49:32.092Z,3.34
2023-03-15T04:51:59.959Z,3.29
2023-03-15T04:54:27.803Z,3.25
2023-03-15T04:56:55.801Z,3.21
2023-03-15T04:59:23.820Z,3.19
2023-03-15T05:01:51.757Z,3.17
2023-03-15T05:04:19.738Z,3.16
2023-03-15T05:06:47.675Z,3.17
2023-03-15T05:09:19.401Z,3.18
2023-03-15T05:11:47.792Z,3.23
2023-03-15T05:14:15.835Z,3.30
2023-03-15T05:16:43.753Z,3.36
2023-03-15T05:19:11.695Z,3.43
2023-03-15T05:21:39.559Z,3.48
2023-03-15T05:24:07.696Z,3.54
2023-03-15T05:26:35.788Z,3.58
2023-03-15T05:29:03.776Z,3.61
2023-03-15T05:31:37.154Z,3.64
2023-03-15T05:34:06.423Z,3.66
2023-03-15T05:36:34.793Z,3.69
2023-03-15T05:39:03.309Z,3.70
2023-03-15T05:41:31.781Z,3.72
2023-03-15T05:43:59.743Z,3.74
2023-03-15T05:46:27.588Z,3.77
2023-03-15T05:48:55.410Z,3.79
2023-03-15T05:51:23.357Z,3.81
2023-03-15T05:53:51.255Z,3.82
2023-03-15T05:56:19.385Z,3.84
2023-03-15T05:58:47.539Z,3.87
2023-03-15T06:01:15.538Z,3.89
2023-03-15T06:03:43.575Z,3.93
2023-03-15T06:06:11.613Z,3.95
2023-03-15T06:08:39.502Z,3.98
2023-03-15T06:11:07.458Z,4.02
2023-03-15T06:13:35.261Z,4.06
2023-03-15T06:16:03.364Z,4.11
2023-03-15T06:18:33.937Z,4.18
2023-03-15T06:21:02.013Z,4.24
2023-03-15T06:23:30.120Z,4.32
2023-03-15T06:25:58.042Z,4.39
2023-03-15T06:28:25.844Z,4.47
2023-03-15T06:30:53.708Z,4.55
2023-03-15T06:33:21.625Z,4.61
2023-03-15T06:35:49.478Z,4.70
2023-03-15T06:38:17.474Z,4.79
2023-03-15T06:40:45.471Z,4.88
2023-03-15T06:43:18.356Z,4.99
2023-03-15T06:45:48.245Z,5.09
2023-03-15T06:48:16.289Z,5.20
2023-03-15T06:50:47.429Z,5.30
2023-03-15T06:53:16.212Z,5.39
2023-03-15T06:55:45.026Z,5.47
2023-03-15T06:58:13.779Z,5.54
2023-03-15T07:00:41.989Z,5.60
2023-03-15T07:03:10.441Z,5.65
2023-03-15T07:05:38.335Z,5.68
2023-03-15T07:08:07.006Z,5.71
2023-03-15T07:10:34.918Z,5.74
2023-03-15T07:13:02.753Z,5.76
2023-03-15T07:15:31.078Z,5.77
2023-03-15T07:17:58.999Z,5.80
2023-03-15T07:20:26.863Z,5.84
2023-03-15T07:22:54.861Z,5.89
2023-03-15T07:25:24.227Z,5.92
2023-03-15T07:27:53.234Z,5.95
2023-03-15T07:30:22.118Z,6.00
2023-03-15T07:32:50.234Z,6.04
2023-03-15T07:35:18.295Z,6.09
2023-03-15T07:37:46.385Z,6.15
2023-03-15T07:40:16.086Z,6.20
2023-03-15T07:42:44.227Z,6.25
2023-03-15T07:45:12.247Z,6.28
2023-03-15T07:47:40.082Z,6.31
2023-03-15T07:50:08.772Z,6.36
2023-03-15T07:52:36.722Z,6.40
2023-03-15T07:55:08.341Z,6.42
2023-03-15T07:57:36.147Z,6.43
2023-03-15T08:00:05.033Z,6.44
2023-03-15T08:02:33.060Z,6.47
2023-03-15T08:05:01.022Z,6.50
2023-03-15T08:07:29.032Z,6.56
2023-03-15T08:09:58.384Z,6.63
2023-03-15T08:12:26.229Z,6.72
2023-03-15T08:14:54.165Z,6.80
2023-03-15T08:17:21.935Z,6.89
2023-03-15T08:19:49.876Z,6.99
2023-03-15T08:22:17.775Z,7.10
2023-03-15T08:24:46.047Z,7.21
2023-03-15T08:27:14.027Z,7.31
2023-03-15T08:29:41.878Z,7.42
2023-03-15T08:32:09.910Z,7.53
2023-03-15T08:34:37.898Z,7.62
2023-03-15T08:37:05.726Z,7.72
2023-03-15T08:39:36.316Z,7.80
2023-03-15T08:42:04.720Z,7.88
2023-03-15T08:44:35.199Z,7.94
2023-03-15T08:47:05.282Z,7.97
2023-03-15T08:49:33.655Z,7.99
2023-03-15T08:52:01.463Z,8.03
2023-03-15T08:54:29.442Z,8.06
2023-03-15T08:56:57.330Z,8.10
2023-03-15T08:59:31.893Z,8.14
2023-03-15T09:02:01.441Z,8.20
2023-03-15T09:04:30.653Z,8.26
2023-03-15T09:06:58.710Z,8.32
2023-03-15T09:09:27.231Z,8.38
2023-03-15T09:11:56.238Z,8.44
2023-03-15T09:14:24.125Z,8.51
2023-03-15T09:16:52.583Z,8.59
2023-03-15T09:19:20.702Z,8.67
2023-03-15T09:21:48.702Z,8.75
2023-03-15T09:24:16.654Z,8.83
2023-03-15T09:26:44.490Z,8.90
2023-03-15T09:29:12.403Z,8.96
2023-03-15T09:31:40.711Z,9.03
2023-03-15T09:34:08.564Z,9.10
2023-03-15T09:36:36.435Z,9.16
2023-03-15T09:39:04.901Z,9.22
2023-03-15T09:41:46.496Z,9.29
2023-03-15T09:44:44.230Z,9.36
2023-03-15T09:47:29.499Z,9.42
2023-03-15T09:50:04.987Z,9.48
2023-03-15T09:52:44.586Z,9.54
2023-03-15T09:55:23.058Z,9.59
2023-03-15T09:57:58.878Z,9.63
2023-03-15T10:00:41.559Z,9.67
2023-03-15T10:03:42.966Z,9.71
2023-03-15T10:06:28.757Z,9.76
2023-03-15T10:08:59.426Z,9.80
2023-03-15T10:11:40.530Z,9.83
2023-03-15T10:14:47.317Z,9.86
2023-03-15T10:17:27.341Z,9.90
2023-03-15T10:20:01.420Z,9.93
2023-03-15T10:22:40.621Z,9.97
2023-03-15T10:25:38.897Z,10.00
2023-03-15T10:28:06.709Z,10.02
2023-03-15T10:30:36.762Z,10.05
2023-03-15T10:33:39.109Z,10.08
2023-03-15T10:36:19.285Z,10.12
2023-03-15T10:38:48.505Z,10.14
2023-03-15T10:41:50.277Z,10.17
2023-03-15T10:44:25.203Z,10.22
2023-03-15T10:47:04.996Z,10.24
2023-03-15T10:49:41.682Z,10.27
2023-03-15T10:52:31.905Z,10.31
2023-03-15T10:55:21.936Z,10.39
2023-03-15T10:57:56.721Z,10.51
2023-03-15T11:00:32.088Z,10.65
2023-03-15T11:03:18.868Z,10.79
2023-03-15T11:05:50.469Z,10.91
2023-03-15T11:08:24.801Z,11.05
2023-03-15T11:10:58.035Z,11.23
2023-03-15T11:13:34.544Z,11.44
2023-03-15T11:16:06.984Z,11.69
2023-03-15T11:19:16.864Z,11.92
2023-03-15T11:21:45.402Z,12.07
2023-03-15T11:24:34.275Z,12.12
2023-03-15T11:27:04.631Z,12.15
2023-03-15T11:29:35.501Z,12.19
2023-03-15T11:32:13.428Z,12.22
2023-03-15T11:35:01.691Z,12.20
2023-03-15T11:37:41.783Z,12.16
2023-03-15T11:40:17.377Z,12.12
2023-03-15T11:43:00.728Z,12.09
2023-03-15T11:45:58.413Z,12.04
2023-03-15T11:48:36.887Z,11.95
2023-03-15T11:51:06.313Z,11.88
2023-03-15T11:54:01.331Z,11.83
2023-03-15T11:56:48.165Z,11.80
2023-03-15T11:59:21.385Z,11.77
2023-03-15T12:01:55.042Z,11.79
2023-03-15T12:04:29.399Z,11.82
2023-03-15T12:06:58.000Z,11.82
2023-03-15T12:09:31.847Z,11.76
2023-03-15T12:12:01.345Z,11.75
2023-03-15T12:14:31.051Z,11.74
2023-03-15T12:17:29.580Z,11.76
2023-03-15T12:20:09.127Z,11.76
2023-03-15T12:22:40.811Z,11.76
2023-03-15T12:25:22.632Z,11.78
2023-03-15T12:27:54.362Z,11.81
2023-03-15T12:30:33.337Z,11.86
2023-03-15T12:33:02.496Z,11.91
2023-03-15T12:35:40.034Z,11.96
2023-03-15T12:38:31.982Z,12.01
2023-03-15T12:40:59.963Z,12.07
2023-03-15T12:43:36.754Z,12.11
2023-03-15T12:46:05.187Z,12.15
2023-03-15T12:48:33.978Z,12.21
2023-03-15T12:51:04.370Z,12.27
2023-03-15T12:53:32.161Z,12.35
2023-03-15T12:56:33.348Z,12.41
2023-03-15T12:59:07.349Z,12.48
2023-03-15T13:01:35.357Z,12.54
2023-03-15T13:04:03.963Z,12.60
2023-03-15T13:07:17.818Z,12.65
2023-03-15T13:10:04.827Z,12.71
2023-03-15T13:12:41.957Z,12.72
2023-03-15T13:15:17.641Z,12.73
2023-03-15T13:17:58.078Z,12.73
2023-03-15T13:20:48.573Z,12.73
2023-03-15T13:23:28.537Z,12.73
2023-03-15T13:26:08.456Z,12.72
2023-03-15T13:28:40.050Z,12.73
2023-03-15T13:31:23.790Z,12.74
2023-03-15T13:33:58.169Z,12.72
2023-03-15T13:36:56.091Z,12.71
2023-03-15T13:39:27.218Z,12.72
2023-03-15T13:42:19.747Z,12.73
2023-03-15T13:44:47.811Z,12.68
2023-03-15T13:47:24.424Z,12.63
2023-03-15T13:49:52.922Z,12.58
2023-03-15T13:52:20.945Z,12.55
2023-03-15T13:54:52.190Z,12.50
2023-03-15T13:57:22.189Z,12.45
2023-03-15T13:59:52.826Z,12.40
2023-03-15T14:02:25.135Z,12.39
2023-03-15T14:04:58.595Z,12.35
2023-03-15T14:07:34.202Z,12.28
2023-03-15T14:10:18.458Z,12.22
2023-03-15T14:12:46.573Z,12.16
2023-03-15T14:15:18.661Z,12.07
2023-03-15T14:18:03.837Z,11.97
2023-03-15T14:20:42.609Z,11.87
2023-03-15T14:23:17.778Z,11.73
2023-03-15T14:26:02.232Z,11.60
2023-03-15T14:28:31.798Z,11.50
2023-03-15T14:31:02.447Z,11.40
2023-03-15T14:33:38.507Z,11.29
2023-03-15T14:36:23.808Z,11.17
2023-03-15T14:38:54.713Z,11.06
2023-03-15T14:41:31.493Z,10.94
2023-03-15T14:44:04.581Z,10.77
2023-03-15T14:46:33.824Z,10.57
2023-03-15T14:49:05.035Z,10.33
2023-03-15T14:51:33.461Z,10.10
2023-03-15T14:54:01.821Z,9.94
2023-03-15T14:56:29.804Z,9.82
2023-03-15T14:58:57.848Z,9.73
2023-03-15T15:01:27.302Z,9.62
2023-03-15T15:04:00.045Z,9.52
2023-03-15T15:06:33.971Z,9.42
2023-03-15T15:09:03.053Z,9.30
2023-03-15T15:11:31.069Z,9.14
2023-03-15T15:13:59.357Z,8.96
2023-03-15T15:16:27.457Z,8.84
2023-03-15T15:18:55.568Z,8.74
2023-03-15T15:21:33.488Z,8.66
2023-03-15T15:24:03.916Z,8.57
2023-03-15T15:26:32.786Z,8.47
2023-03-15T15:29:00.913Z,8.39
2023-03-15T15:31:30.103Z,8.34
2023-03-15T15:33:58.160Z,8.30
2023-03-15T15:36:31.204Z,8.26
2023-03-15T15:39:07.277Z,8.23
2023-03-15T15:41:35.414Z,8.19
2023-03-15T15:44:03.957Z,8.15
2023-03-15T15:46:32.695Z,8.13
2023-03-15T15:49:00.966Z,8.09
2023-03-15T15:51:38.178Z,8.05
2023-03-15T15:54:06.753Z,8.00
2023-03-15T15:56:40.188Z,7.93
2023-03-15T15:59:13.690Z,7.85
2023-03-15T16:01:56.807Z,7.75
2023-03-15T16:04:27.478Z,7.65
2023-03-15T16:07:01.787Z,7.57
2023-03-15T16:09:32.189Z,7.52
2023-03-15T16:12:00.120Z,7.43
2023-03-15T16:14:28.181Z,7.34
2023-03-15T16:16:56.085Z,7.27
2023-03-15T16:19:24.167Z,7.16
2023-03-15T16:21:54.489Z,7.06
2023-03-15T16:24:28.933Z,7.01
2023-03-15T16:27:04.308Z,6.96
2023-03-15T16:29:40.234Z,6.90
2023-03-15T16:32:20.616Z,6.84
2023-03-15T16:34:54.860Z,6.77
2023-03-15T16:37:26.514Z,6.69
2023-03-15T16:39:57.781Z,6.62
2023-03-15T16:42:26.042Z,6.56
2023-03-15T16:44:53.962Z,6.48
2023-03-15T16:47:21.868Z,6.38
2023-03-15T16:49:49.821Z,6.29
2023-03-15T16:52:18.246Z,6.22
2023-03-15T16:54:49.000Z,6.15
2023-03-15T16:57:22.036Z,6.07
2023-03-15T16:59:51.413Z,6.02
2023-03-15T17:02:26.000Z,5.96
2023-03-15T17:04:54.515Z,5.83
2023-03-15T17:07:29.303Z,5.72
2023-03-15T17:09:58.133Z,5.63
2023-03-15T17:12:27.910Z,5.54
2023-03-15T17:14:59.153Z,5.51
2023-03-15T17:17:28.506Z,5.48
2023-03-15T17:19:57.724Z,5.45
2023-03-15T17:22:26.250Z,5.41
2023-03-15T17:24:54.710Z,5.37
2023-03-15T17:27:30.549Z,5.35
2023-03-15T17:29:58.643Z,5.33
2023-03-15T17:32:26.628Z,5.28
2023-03-15T17:34:59.111Z,5.23
2023-03-15T17:37:33.794Z,5.17
2023-03-15T17:40:09.432Z,5.16
2023-03-15T17:42:37.429Z,5.15
2023-03-15T17:45:15.580Z,5.16
2023-03-15T17:47:43.751Z,5.14
2023-03-15T17:50:12.186Z,5.12
2023-03-15T17:52:42.664Z,5.11
2023-03-15T17:55:24.485Z,5.09
2023-03-15T17:57:55.391Z,5.12
2023-03-15T18:00:25.034Z,5.13
2023-03-15T18:02:56.009Z,5.13
2023-03-15T18:05:26.848Z,5.14
2023-03-15T18:07:58.894Z,5.14
2023-03-15T18:10:34.186Z,5.15
2023-03-15T18:13:03.283Z,5.13
2023-03-15T18:15:31.921Z,5.11
2023-03-15T18:17:59.965Z,5.09
2023-03-15T18:20:28.758Z,5.04
2023-03-15T18:22:56.822Z,5.01
2023-03-15T18:25:27.301Z,5.00
2023-03-15T18:27:55.426Z,4.97
2023-03-15T18:30:25.325Z,4.94
2023-03-15T18:32:54.060Z,4.90
2023-03-15T18:35:42.411Z,4.86
2023-03-15T18:38:10.849Z,4.83
2023-03-15T18:40:38.783Z,4.79
2023-03-15T18:43:06.781Z,4.77
2023-03-15T18:45:36.166Z,4.75
2023-03-15T18:48:04.970Z,4.75
2023-03-15T18:50:34.520Z,4.76
2023-03-15T18:53:04.999Z,4.76
2023-03-15T18:55:34.409Z,4.75
2023-03-15T18:58:03.064Z,4.72
2023-03-15T19:00:36.237Z,4.69
2023-03-15T19:03:06.142Z,4.64
2023-03-15T19:05:37.045Z,4.59
2023-03-15T19:08:05.209Z,4.53
2023-03-15T19:10:33.299Z,4.47
2023-03-15T19:13:04.836Z,4.42
2023-03-15T19:15:38.240Z,4.37
2023-03-15T19:18:09.344Z,4.32
2023-03-15T19:20:37.285Z,4.28
2023-03-15T19:23:05.191Z,4.23
2023-03-15T19:25:33.220Z,4.17
2023-03-15T19:28:01.393Z,4.11
2023-03-15T19:30:35.235Z,4.03
2023-03-15T19:33:03.814Z,3.98
2023-03-15T19:35:33.193Z,3.94
2023-03-15T19:38:01.716Z,3.90
2023-03-15T19:40:29.769Z,3.89
2023-03-15T19:42:57.645Z,3.85
2023-03-15T19:45:25.642Z,3.81
2023-03-15T19:47:53.486Z,3.77
2023-03-15T19:50:21.524Z,3.74
2023-03-15T19:52:50.032Z,3.73
2023-03-15T19:55:20.880Z,3.72
2023-03-15T19:57:48.958Z,3.70
2023-03-15T20:00:18.773Z,3.67
2023-03-15T20:02:47.811Z,3.60
2023-03-15T20:05:22.550Z,3.57
2023-03-15T20:07:54.307Z,3.57
2023-03-15T20:10:22.546Z,3.55
2023-03-15T20:12:50.839Z,3.52
2023-03-15T20:15:19.381Z,3.49
2023-03-15T20:17:47.627Z,3.44
2023-03-15T20:20:15.621Z,3.42
2023-03-15T20:22:45.517Z,3.41
2023-03-15T20:25:16.656Z,3.37
2023-03-15T20:27:44.988Z,3.36
2023-03-15T20:30:15.988Z,3.34
2023-03-15T20:32:44.108Z,3.33
2023-03-15T20:35:12.220Z,3.34
2023-03-15T20:37:42.388Z,3.33
2023-03-15T20:40:13.224Z,3.31
2023-03-15T20:42:41.930Z,3.29
2023-03-15T20:45:12.402Z,3.28
2023-03-15T20:47:41.460Z,3.26
2023-03-15T20:50:11.531Z,3.20
2023-03-15T20:52:40.909Z,3.14
2023-03-15T20:55:10.034Z,3.10
2023-03-15T20:57:41.292Z,3.08
2023-03-15T21:00:18.452Z,3.05
2023-03-15T21:02:47.829Z,3.03
2023-03-15T21:05:18.617Z,3.03
2023-03-15T21:07:46.731Z,2.99
2023-03-15T21:10:16.091Z,2.96
2023-03-15T21:12:44.130Z,2.92
2023-03-15T21:15:19.044Z,2.87
2023-03-15T21:17:49.442Z,2.84
2023-03-15T21:20:18.407Z,2.82
2023-03-15T21:22:46.488Z,2.83
2023-03-15T21:25:14.497Z,2.84
2023-03-15T21:27:42.758Z,2.84
2023-03-15T21:30:13.890Z,2.82
2023-03-15T21:32:42.906Z,2.81
2023-03-15T21:35:11.337Z,2.79
2023-03-15T21:37:39.934Z,2.78
2023-03-15T21:40:08.689Z,2.80
2023-03-15T21:42:37.091Z,2.80
2023-03-15T21:45:07.178Z,2.81
2023-03-15T21:47:35.611Z,2.83
2023-03-15T21:50:03.908Z,2.84
2023-03-15T21:52:31.844Z,2.82
2023-03-15T21:54:59.777Z,2.81
2023-03-15T21:57:27.892Z,2.78
2023-03-15T21:59:55.864Z,2.74
2023-03-15T22:02:23.942Z,2.68
2023-03-15T22:04:52.847Z,2.60
2023-03-15T22:07:25.770Z,2.51
2023-03-15T22:09:54.272Z,2.45
2023-03-15T22:12:22.351Z,2.40
2023-03-15T22:15:00.018Z,2.34
2023-03-15T22:17:34.233Z,2.31
2023-03-15T22:20:02.436Z,2.31
2023-03-15T22:22:31.521Z,2.28
2023-03-15T22:24:59.407Z,2.27
2023-03-15T22:27:27.210Z,2.27
2023-03-15T22:29:55.033Z,2.26
2023-03-15T22:32:22.910Z,2.28
2023-03-15T22:34:51.375Z,2.29
2023-03-15T22:37:19.271Z,2.29
2023-03-15T22:39:48.038Z,2.30
2023-03-15T22:42:15.891Z,2.31
2023-03-15T22:44:43.871Z,2.32
2023-03-15T22:47:12.788Z,2.31
2023-03-15T22:49:40.983Z,2.30
2023-03-15T22:52:09.080Z,2.30
2023-03-15T22:54:36.997Z,2.29
2023-03-15T22:57:04.921Z,2.29
2023-03-15T22:59:33.064Z,2.26
2023-03-15T23:02:00.915Z,2.20
2023-03-15T23:04:28.935Z,2.14
2023-03-15T23:06:56.925Z,2.09
2023-03-15T23:09:24.826Z,2.06
2023-03-15T23:11:52.744Z,2.04
2023-03-15T23:14:21.492Z,2.00
2023-03-15T23:16:49.445Z,1.98
2023-03-15T23:19:17.351Z,1.97
2023-03-15T23:21:45.193Z,1.98
2023-03-15T23:24:14.284Z,1.97
2023-03-15T23:26:42.094Z,1.95
2023-03-15T23:29:12.838Z,1.90
2023-03-15T23:31:42.045Z,1.87
2023-03-15T23:34:10.074Z,1.83
2023-03-15T23:36:38.091Z,1.77
2023-03-15T23:39:06.428Z,1.72
2023-03-15T23:41:35.908Z,1.67
2023-03-15T23:44:03.857Z,1.68
2023-03-15T23:46:36.181Z,1.69
2023-03-15T23:49:05.150Z,1.71
2023-03-15T23:51:33.176Z,1.70
2023-03-15T23:54:02.198Z,1.67
2023-03-15T23:56:30.400Z,1.64
2023-03-15T23:58:58.797Z,1.61
